SAS156 ESGG-ESSA
Flight info
| Callsign | SAS156 |
|---|---|
| Flight time | N/A |
| Altitude | 31000 |
| Route | LABAN N873 ARS T317 ELTOK |
| Aircraft | A320/M-SDE3FGHIRWY/LB1 |
Departure
| Time | 2026-05-06 19:04 |
|---|---|
| Airport | Göteborg Landvetter Airport (ESGG) |
Arrival
| Time | N/A |
|---|---|
| Airport | Stockholm-Arlanda Airport (ESSA) |
| Time | Latitude | Longitude | Altitude | Speed | Heading |
|---|---|---|---|---|---|
| 2026-05-06 18:23 | 57.66778 | 12.29312 | 516 ft | 0 kts | 116° |
| 2026-05-06 18:54 | 57.66788 | 12.29275 | 516 ft | 4 kts | 115° |
| 2026-05-06 18:54 | 57.66796 | 12.29229 | 516 ft | 4 kts | 91° |
| 2026-05-06 18:55 | 57.66791 | 12.29185 | 516 ft | 4 kts | 44° |
| 2026-05-06 18:55 | 57.66783 | 12.29172 | 516 ft | 1 kts | 26° |
| 2026-05-06 18:55 | 57.66779 | 12.29170 | 516 ft | 0 kts | 26° |
| 2026-05-06 18:58 | 57.66791 | 12.29180 | 516 ft | 4 kts | 26° |
| 2026-05-06 18:59 | 57.66827 | 12.29213 | 516 ft | 8 kts | 26° |
| 2026-05-06 18:59 | 57.66888 | 12.29269 | 516 ft | 12 kts | 26° |
| 2026-05-06 18:59 | 57.66958 | 12.29333 | 516 ft | 5 kts | 26° |
| 2026-05-06 18:59 | 57.66987 | 12.29289 | 516 ft | 8 kts | 297° |
| 2026-05-06 19:00 | 57.67029 | 12.29197 | 516 ft | 11 kts | 336° |
| 2026-05-06 19:00 | 57.67109 | 12.29246 | 516 ft | 13 kts | 26° |
| 2026-05-06 19:00 | 57.67202 | 12.29330 | 516 ft | 17 kts | 26° |
| 2026-05-06 19:00 | 57.67318 | 12.29435 | 516 ft | 20 kts | 26° |
| 2026-05-06 19:01 | 57.67410 | 12.29466 | 516 ft | 12 kts | 325° |
| 2026-05-06 19:01 | 57.67455 | 12.29311 | 516 ft | 12 kts | 296° |
| 2026-05-06 19:01 | 57.67461 | 12.29253 | 515 ft | 0 kts | 266° |
| 2026-05-06 19:02 | 57.67460 | 12.29245 | 515 ft | 3 kts | 266° |
| 2026-05-06 19:03 | 57.67458 | 12.29177 | 515 ft | 8 kts | 266° |
| 2026-05-06 19:03 | 57.67447 | 12.29053 | 515 ft | 11 kts | 242° |
| 2026-05-06 19:03 | 57.67407 | 12.29003 | 515 ft | 0 kts | 205° |
| 2026-05-06 19:03 | 57.67356 | 12.28958 | 515 ft | 35 kts | 205° |
| 2026-05-06 19:04 | 57.66896 | 12.28539 | 513 ft | 108 kts | 206° |
| 2026-05-06 19:04 | 57.66047 | 12.27766 | 514 ft | 160 kts | 205° |
| 2026-05-06 19:04 | 57.65021 | 12.26835 | 1041 ft | 165 kts | 209° |
| 2026-05-06 19:04 | 57.63981 | 12.25876 | 1727 ft | 169 kts | 209° |
| 2026-05-06 19:05 | 57.62865 | 12.25016 | 2233 ft | 184 kts | 187° |
| 2026-05-06 19:05 | 57.61549 | 12.25519 | 2564 ft | 208 kts | 157° |
| 2026-05-06 19:05 | 57.60164 | 12.26633 | 3140 ft | 221 kts | 158° |
| 2026-05-06 19:05 | 57.58760 | 12.27746 | 4128 ft | 218 kts | 159° |
| 2026-05-06 19:06 | 57.57450 | 12.29212 | 4785 ft | 224 kts | 134° |
| 2026-05-06 19:06 | 57.56787 | 12.31845 | 4973 ft | 240 kts | 97° |
| 2026-05-06 19:06 | 57.57061 | 12.35061 | 5017 ft | 267 kts | 73° |
| 2026-05-06 19:06 | 57.57717 | 12.38358 | 5043 ft | 274 kts | 69° |
| 2026-05-06 19:07 | 57.58456 | 12.41650 | 5972 ft | 276 kts | 68° |
| 2026-05-06 19:07 | 57.59212 | 12.44966 | 7007 ft | 278 kts | 69° |
| 2026-05-06 19:07 | 57.59961 | 12.48313 | 7978 ft | 281 kts | 69° |
| 2026-05-06 19:07 | 57.60706 | 12.51714 | 8910 ft | 286 kts | 69° |
| 2026-05-06 19:08 | 57.61469 | 12.55170 | 9821 ft | 291 kts | 65° |
| 2026-05-06 19:08 | 57.62566 | 12.58387 | 10618 ft | 297 kts | 50° |
| 2026-05-06 19:08 | 57.64117 | 12.61120 | 10968 ft | 319 kts | 34° |
| 2026-05-06 19:08 | 57.66003 | 12.63508 | 11424 ft | 334 kts | 33° |
| 2026-05-06 19:09 | 57.67947 | 12.65950 | 12160 ft | 339 kts | 33° |
| 2026-05-06 19:09 | 57.69920 | 12.68438 | 12945 ft | 344 kts | 32° |
| 2026-05-06 19:09 | 57.71908 | 12.70963 | 13736 ft | 348 kts | 32° |
| 2026-05-06 19:09 | 57.73921 | 12.73534 | 14425 ft | 352 kts | 32° |
| 2026-05-06 19:10 | 57.75930 | 12.76109 | 14819 ft | 356 kts | 32° |
| 2026-05-06 19:10 | 57.77977 | 12.78737 | 14928 ft | 357 kts | 32° |
| 2026-05-06 19:10 | 57.80020 | 12.81368 | 14950 ft | 357 kts | 32° |
| 2026-05-06 19:10 | 57.82071 | 12.84015 | 14950 ft | 357 kts | 32° |
| 2026-05-06 19:11 | 57.84118 | 12.86659 | 14946 ft | 357 kts | 32° |
| 2026-05-06 19:11 | 57.86171 | 12.89308 | 14950 ft | 357 kts | 32° |
| 2026-05-06 19:11 | 57.88210 | 12.91936 | 14949 ft | 350 kts | 32° |
| 2026-05-06 19:11 | 57.90163 | 12.94460 | 14949 ft | 332 kts | 32° |
| 2026-05-06 19:12 | 57.92019 | 12.96871 | 14947 ft | 317 kts | 32° |
| 2026-05-06 19:12 | 57.93804 | 12.99194 | 14950 ft | 309 kts | 32° |
| 2026-05-06 19:12 | 57.95571 | 13.01485 | 14950 ft | 308 kts | 32° |
| 2026-05-06 19:12 | 57.97338 | 13.03774 | 14950 ft | 308 kts | 32° |
| 2026-05-06 19:13 | 57.99104 | 13.06062 | 14950 ft | 308 kts | 32° |
| 2026-05-06 19:13 | 58.00869 | 13.08353 | 14947 ft | 308 kts | 32° |
| 2026-05-06 19:13 | 58.02607 | 13.10617 | 14947 ft | 308 kts | 32° |
| 2026-05-06 19:13 | 58.04371 | 13.12916 | 14948 ft | 308 kts | 32° |
| 2026-05-06 19:14 | 58.06134 | 13.15222 | 14950 ft | 308 kts | 32° |
| 2026-05-06 19:14 | 58.07892 | 13.17526 | 14950 ft | 308 kts | 32° |
| 2026-05-06 19:14 | 58.09652 | 13.19839 | 14951 ft | 308 kts | 32° |
| 2026-05-06 19:14 | 58.11413 | 13.22158 | 14950 ft | 308 kts | 32° |
| 2026-05-06 19:15 | 58.13168 | 13.24467 | 14947 ft | 308 kts | 32° |
| 2026-05-06 19:15 | 58.14934 | 13.26789 | 14947 ft | 308 kts | 32° |
| 2026-05-06 19:15 | 58.16631 | 13.29180 | 14947 ft | 309 kts | 38° |
| 2026-05-06 19:15 | 58.18152 | 13.32080 | 14948 ft | 311 kts | 47° |
| 2026-05-06 19:16 | 58.19558 | 13.35209 | 14952 ft | 311 kts | 47° |
| 2026-05-06 19:16 | 58.20970 | 13.38333 | 14950 ft | 311 kts | 47° |
| 2026-05-06 19:16 | 58.22378 | 13.41449 | 14950 ft | 311 kts | 47° |
| 2026-05-06 19:16 | 58.23792 | 13.44581 | 14950 ft | 311 kts | 47° |
| 2026-05-06 19:17 | 58.25200 | 13.47712 | 14945 ft | 311 kts | 47° |
| 2026-05-06 19:17 | 58.26605 | 13.50844 | 14945 ft | 311 kts | 47° |
| 2026-05-06 19:17 | 58.27995 | 13.53947 | 14945 ft | 311 kts | 47° |
| 2026-05-06 19:17 | 58.29400 | 13.57083 | 14945 ft | 311 kts | 47° |
| 2026-05-06 19:18 | 58.30804 | 13.60216 | 14961 ft | 311 kts | 47° |
| 2026-05-06 19:18 | 58.32210 | 13.63360 | 14949 ft | 313 kts | 47° |
| 2026-05-06 19:18 | 58.33624 | 13.66527 | 14948 ft | 314 kts | 47° |
| 2026-05-06 19:18 | 58.35039 | 13.69703 | 14948 ft | 314 kts | 47° |
| 2026-05-06 19:19 | 58.36453 | 13.72877 | 14945 ft | 314 kts | 47° |
| 2026-05-06 19:19 | 58.37864 | 13.76052 | 14945 ft | 314 kts | 47° |
| 2026-05-06 19:19 | 58.39278 | 13.79239 | 14928 ft | 314 kts | 47° |
| 2026-05-06 19:19 | 58.40668 | 13.82372 | 14945 ft | 312 kts | 48° |
| 2026-05-06 19:20 | 58.42064 | 13.85531 | 14945 ft | 311 kts | 48° |
| 2026-05-06 19:20 | 58.43466 | 13.88709 | 14945 ft | 311 kts | 48° |
| 2026-05-06 19:20 | 58.44865 | 13.91878 | 14945 ft | 311 kts | 48° |
| 2026-05-06 19:20 | 58.46259 | 13.95039 | 14945 ft | 311 kts | 48° |
| 2026-05-06 19:21 | 58.47652 | 13.98204 | 14948 ft | 311 kts | 48° |
| 2026-05-06 19:21 | 58.49046 | 14.01377 | 14948 ft | 311 kts | 48° |
| 2026-05-06 19:21 | 58.50436 | 14.04544 | 14948 ft | 311 kts | 48° |
| 2026-05-06 19:21 | 58.51828 | 14.07720 | 14948 ft | 311 kts | 48° |
| 2026-05-06 19:22 | 58.53217 | 14.10887 | 14948 ft | 311 kts | 48° |
| 2026-05-06 19:22 | 58.54616 | 14.14078 | 14962 ft | 312 kts | 47° |
| 2026-05-06 19:22 | 58.55998 | 14.17237 | 14950 ft | 314 kts | 48° |
| 2026-05-06 19:22 | 58.57396 | 14.20444 | 14948 ft | 314 kts | 48° |
| 2026-05-06 19:23 | 58.58803 | 14.23675 | 14948 ft | 314 kts | 48° |
| 2026-05-06 19:23 | 58.60203 | 14.26892 | 14948 ft | 314 kts | 48° |
| 2026-05-06 19:23 | 58.61607 | 14.30121 | 14948 ft | 314 kts | 48° |
| 2026-05-06 19:23 | 58.63007 | 14.33344 | 14948 ft | 314 kts | 48° |
| 2026-05-06 19:24 | 58.64404 | 14.36566 | 14947 ft | 314 kts | 48° |
| 2026-05-06 19:24 | 58.65803 | 14.39796 | 14948 ft | 314 kts | 48° |
| 2026-05-06 19:24 | 58.67204 | 14.43036 | 14948 ft | 315 kts | 48° |
| 2026-05-06 19:24 | 58.68600 | 14.46275 | 14948 ft | 315 kts | 48° |
| 2026-05-06 19:25 | 58.69994 | 14.49513 | 14952 ft | 315 kts | 48° |
| 2026-05-06 19:25 | 58.71391 | 14.52758 | 14952 ft | 315 kts | 48° |
| 2026-05-06 19:25 | 58.72768 | 14.55964 | 14953 ft | 315 kts | 48° |
| 2026-05-06 19:25 | 58.74159 | 14.59213 | 14954 ft | 315 kts | 48° |
| 2026-05-06 19:26 | 58.75551 | 14.62471 | 14954 ft | 315 kts | 48° |
| 2026-05-06 19:26 | 58.76943 | 14.65725 | 14954 ft | 314 kts | 49° |
| 2026-05-06 19:26 | 58.78340 | 14.68990 | 14956 ft | 315 kts | 49° |
| 2026-05-06 19:26 | 58.79735 | 14.72252 | 14956 ft | 315 kts | 49° |
| 2026-05-06 19:27 | 58.81133 | 14.75525 | 14957 ft | 316 kts | 49° |
| 2026-05-06 19:27 | 58.82511 | 14.78758 | 14958 ft | 316 kts | 49° |
| 2026-05-06 19:27 | 58.83920 | 14.82070 | 14964 ft | 316 kts | 49° |
| 2026-05-06 19:27 | 58.85295 | 14.85313 | 14964 ft | 316 kts | 49° |
| 2026-05-06 19:28 | 58.86681 | 14.88590 | 14967 ft | 316 kts | 49° |
| 2026-05-06 19:28 | 58.88075 | 14.91885 | 14967 ft | 316 kts | 49° |
| 2026-05-06 19:28 | 58.89465 | 14.95172 | 14967 ft | 316 kts | 49° |
| 2026-05-06 19:28 | 58.90852 | 14.98459 | 14966 ft | 316 kts | 49° |
| 2026-05-06 19:29 | 58.92243 | 15.01763 | 14964 ft | 316 kts | 49° |
| 2026-05-06 19:29 | 58.93631 | 15.05064 | 14964 ft | 315 kts | 49° |
| 2026-05-06 19:29 | 58.95015 | 15.08356 | 14967 ft | 316 kts | 49° |
| 2026-05-06 19:29 | 58.96402 | 15.11660 | 14967 ft | 315 kts | 49° |
| 2026-05-06 19:30 | 58.97784 | 15.14957 | 14967 ft | 316 kts | 49° |
| 2026-05-06 19:30 | 58.99165 | 15.18263 | 14972 ft | 316 kts | 49° |
| 2026-05-06 19:30 | 59.00552 | 15.21585 | 14978 ft | 317 kts | 49° |
| 2026-05-06 19:30 | 59.01927 | 15.24882 | 14971 ft | 318 kts | 49° |
| 2026-05-06 19:31 | 59.03321 | 15.28230 | 14972 ft | 318 kts | 49° |
| 2026-05-06 19:31 | 59.04712 | 15.31572 | 14972 ft | 318 kts | 49° |
| 2026-05-06 19:31 | 59.07500 | 15.38281 | 14962 ft | 318 kts | 49° |
| 2026-05-06 19:32 | 59.08889 | 15.41630 | 14961 ft | 318 kts | 49° |
| 2026-05-06 19:32 | 59.10276 | 15.44981 | 14959 ft | 318 kts | 49° |
| 2026-05-06 19:32 | 59.11663 | 15.48332 | 14962 ft | 318 kts | 49° |
| 2026-05-06 19:32 | 59.13054 | 15.51693 | 14963 ft | 318 kts | 49° |
| 2026-05-06 19:33 | 59.14440 | 15.55052 | 14962 ft | 318 kts | 50° |
| 2026-05-06 19:33 | 59.15805 | 15.58377 | 14967 ft | 318 kts | 50° |
| 2026-05-06 19:33 | 59.17183 | 15.61747 | 14969 ft | 318 kts | 50° |
| 2026-05-06 19:33 | 59.18564 | 15.65129 | 14970 ft | 318 kts | 50° |
| 2026-05-06 19:34 | 59.19938 | 15.68498 | 14972 ft | 318 kts | 50° |
| 2026-05-06 19:34 | 59.21317 | 15.71871 | 14974 ft | 318 kts | 50° |
| 2026-05-06 19:34 | 59.22691 | 15.75229 | 14983 ft | 313 kts | 49° |
| 2026-05-06 19:34 | 59.24022 | 15.78488 | 14972 ft | 300 kts | 49° |
| 2026-05-06 19:35 | 59.25312 | 15.81655 | 14975 ft | 297 kts | 49° |
| 2026-05-06 19:35 | 59.26600 | 15.84822 | 14975 ft | 297 kts | 49° |
| 2026-05-06 19:35 | 59.27882 | 15.87980 | 14973 ft | 297 kts | 49° |
| 2026-05-06 19:35 | 59.29146 | 15.91101 | 14981 ft | 296 kts | 50° |
| 2026-05-06 19:36 | 59.30427 | 15.94266 | 14982 ft | 297 kts | 50° |
| 2026-05-06 19:36 | 59.31711 | 15.97440 | 14977 ft | 297 kts | 50° |
| 2026-05-06 19:36 | 59.32988 | 16.00607 | 14978 ft | 297 kts | 50° |
| 2026-05-06 19:36 | 59.34266 | 16.03782 | 14977 ft | 297 kts | 50° |
| 2026-05-06 19:37 | 59.35543 | 16.06962 | 14978 ft | 297 kts | 50° |
| 2026-05-06 19:37 | 59.36826 | 16.10157 | 14978 ft | 296 kts | 50° |
| 2026-05-06 19:37 | 59.38100 | 16.13331 | 14981 ft | 296 kts | 50° |
| 2026-05-06 19:37 | 59.38944 | 16.15438 | 14983 ft | 297 kts | 50° |
| 2026-05-06 19:38 | 59.40634 | 16.19654 | 14982 ft | 296 kts | 50° |
| 2026-05-06 19:38 | 59.41922 | 16.22874 | 14986 ft | 297 kts | 50° |
| 2026-05-06 19:38 | 59.43182 | 16.26025 | 14971 ft | 296 kts | 50° |
| 2026-05-06 19:38 | 59.44447 | 16.29194 | 14708 ft | 294 kts | 50° |
| 2026-05-06 19:39 | 59.45709 | 16.32357 | 14409 ft | 294 kts | 50° |
| 2026-05-06 19:39 | 59.46966 | 16.35515 | 14126 ft | 293 kts | 50° |
| 2026-05-06 19:39 | 59.48215 | 16.38659 | 13857 ft | 291 kts | 50° |
| 2026-05-06 19:39 | 59.49462 | 16.41797 | 13563 ft | 289 kts | 50° |
| 2026-05-06 19:40 | 59.50699 | 16.44915 | 13242 ft | 288 kts | 50° |
| 2026-05-06 19:40 | 59.51924 | 16.48009 | 12978 ft | 285 kts | 50° |
| 2026-05-06 19:40 | 59.53132 | 16.51069 | 12705 ft | 282 kts | 50° |
| 2026-05-06 19:40 | 59.54332 | 16.54120 | 12407 ft | 281 kts | 50° |
| 2026-05-06 19:41 | 59.55528 | 16.57166 | 12099 ft | 280 kts | 50° |
| 2026-05-06 19:41 | 59.56720 | 16.60197 | 11789 ft | 280 kts | 50° |
| 2026-05-06 19:41 | 59.57911 | 16.63185 | 11480 ft | 279 kts | 46° |
| 2026-05-06 19:41 | 59.59278 | 16.65876 | 11173 ft | 276 kts | 37° |
| 2026-05-06 19:42 | 59.60815 | 16.68140 | 10842 ft | 278 kts | 32° |
| 2026-05-06 19:42 | 59.62406 | 16.70377 | 10466 ft | 281 kts | 32° |
| 2026-05-06 19:42 | 59.63998 | 16.72629 | 10091 ft | 283 kts | 32° |
| 2026-05-06 19:42 | 59.65600 | 16.74902 | 9698 ft | 284 kts | 32° |
| 2026-05-06 19:43 | 59.67211 | 16.77190 | 9286 ft | 285 kts | 32° |
| 2026-05-06 19:43 | 59.68829 | 16.79488 | 8889 ft | 286 kts | 33° |
| 2026-05-06 19:43 | 59.70426 | 16.81763 | 8490 ft | 287 kts | 33° |
| 2026-05-06 19:43 | 59.72064 | 16.84099 | 8084 ft | 287 kts | 33° |
| 2026-05-06 19:44 | 59.73662 | 16.86380 | 7694 ft | 287 kts | 33° |
| 2026-05-06 19:44 | 59.75283 | 16.88699 | 7296 ft | 287 kts | 34° |
| 2026-05-06 19:44 | 59.76901 | 16.91018 | 6904 ft | 287 kts | 34° |
| 2026-05-06 19:44 | 59.77969 | 16.92548 | 6655 ft | 286 kts | 34° |
| 2026-05-06 19:45 | 59.79583 | 16.94871 | 6266 ft | 286 kts | 36° |
| 2026-05-06 19:45 | 59.81018 | 16.97633 | 5866 ft | 286 kts | 50° |
| 2026-05-06 19:45 | 59.82341 | 17.02149 | 5346 ft | 286 kts | 69° |
| 2026-05-06 19:45 | 59.82848 | 17.05942 | 5024 ft | 282 kts | 83° |
| 2026-05-06 19:46 | 59.83053 | 17.09698 | 5035 ft | 266 kts | 84° |
| 2026-05-06 19:46 | 59.83190 | 17.12118 | 5043 ft | 256 kts | 84° |
| 2026-05-06 19:46 | 59.83388 | 17.15536 | 5049 ft | 241 kts | 84° |
| 2026-05-06 19:46 | 59.83574 | 17.18756 | 4971 ft | 230 kts | 84° |
| 2026-05-06 19:47 | 59.83724 | 17.21829 | 4839 ft | 220 kts | 90° |
| 2026-05-06 19:47 | 59.83629 | 17.24821 | 4623 ft | 214 kts | 102° |
| 2026-05-06 19:47 | 59.83267 | 17.27667 | 4332 ft | 211 kts | 112° |
| 2026-05-06 19:47 | 59.82663 | 17.30304 | 4041 ft | 208 kts | 122° |
| 2026-05-06 19:48 | 59.81956 | 17.32802 | 3760 ft | 207 kts | 121° |
| 2026-05-06 19:48 | 59.81259 | 17.35289 | 3541 ft | 204 kts | 121° |
| 2026-05-06 19:48 | 59.80568 | 17.37756 | 3501 ft | 205 kts | 121° |
| 2026-05-06 19:48 | 59.79873 | 17.40234 | 3509 ft | 205 kts | 121° |
| 2026-05-06 19:49 | 59.79186 | 17.42683 | 3503 ft | 205 kts | 121° |
| 2026-05-06 19:49 | 59.78493 | 17.45154 | 3505 ft | 205 kts | 121° |
| 2026-05-06 19:49 | 59.77795 | 17.47629 | 3509 ft | 205 kts | 121° |
| 2026-05-06 19:49 | 59.77097 | 17.50100 | 3505 ft | 205 kts | 121° |
| 2026-05-06 19:50 | 59.76401 | 17.52566 | 3497 ft | 205 kts | 121° |
| 2026-05-06 19:50 | 59.75703 | 17.55038 | 3499 ft | 205 kts | 121° |
| 2026-05-06 19:50 | 59.75004 | 17.57516 | 3505 ft | 205 kts | 121° |
| 2026-05-06 19:50 | 59.74392 | 17.60071 | 3497 ft | 207 kts | 103° |
| 2026-05-06 19:51 | 59.74442 | 17.62934 | 3509 ft | 211 kts | 80° |
| 2026-05-06 19:51 | 59.74798 | 17.65760 | 3505 ft | 211 kts | 76° |
| 2026-05-06 19:51 | 59.75197 | 17.68559 | 3504 ft | 211 kts | 76° |
| 2026-05-06 19:51 | 59.75590 | 17.71246 | 3445 ft | 199 kts | 76° |
| 2026-05-06 19:52 | 59.75971 | 17.73836 | 3313 ft | 192 kts | 76° |
| 2026-05-06 19:52 | 59.76342 | 17.76334 | 3157 ft | 186 kts | 76° |
| 2026-05-06 19:52 | 59.76714 | 17.78784 | 2917 ft | 185 kts | 76° |
| 2026-05-06 19:52 | 59.77093 | 17.81223 | 2663 ft | 185 kts | 76° |
| 2026-05-06 19:53 | 59.77477 | 17.83647 | 2534 ft | 185 kts | 76° |
| 2026-05-06 19:53 | 59.77870 | 17.86074 | 2505 ft | 185 kts | 76° |
| 2026-05-06 19:53 | 59.78264 | 17.88507 | 2516 ft | 186 kts | 76° |
| 2026-05-06 19:53 | 59.78659 | 17.90947 | 2513 ft | 186 kts | 76° |
| 2026-05-06 19:54 | 59.79054 | 17.93388 | 2512 ft | 186 kts | 76° |
| 2026-05-06 19:54 | 59.79451 | 17.95838 | 2513 ft | 186 kts | 76° |
| 2026-05-06 19:54 | 59.79845 | 17.98281 | 2514 ft | 186 kts | 76° |
| 2026-05-06 19:54 | 59.80159 | 18.00754 | 2502 ft | 182 kts | 95° |
| 2026-05-06 19:55 | 59.79765 | 18.02992 | 2507 ft | 174 kts | 135° |
| 2026-05-06 19:55 | 59.78731 | 18.04070 | 2511 ft | 171 kts | 176° |
| 2026-05-06 19:55 | 59.77548 | 18.03783 | 2520 ft | 173 kts | 199° |
| 2026-05-06 19:55 | 59.76497 | 18.02611 | 2516 ft | 175 kts | 213° |
| 2026-05-06 19:56 | 59.75527 | 18.01226 | 2501 ft | 164 kts | 213° |
| 2026-05-06 19:56 | 59.74616 | 18.00013 | 2498 ft | 153 kts | 207° |
| 2026-05-06 19:56 | 59.73659 | 17.99182 | 2500 ft | 148 kts | 189° |
| 2026-05-06 19:56 | 59.72647 | 17.98766 | 2499 ft | 147 kts | 190° |
| 2026-05-06 19:57 | 59.71673 | 17.98383 | 2206 ft | 144 kts | 189° |